createdAt,value
2018-04-23T00:02:14.882Z,15.24
2018-04-23T00:04:43.152Z,15.23
2018-04-23T00:07:12.202Z,15.24
2018-04-23T00:09:40.471Z,15.21
2018-04-23T00:12:08.759Z,15.15
2018-04-23T00:14:37.047Z,15.02
2018-04-23T00:17:05.312Z,15.06
2018-04-23T00:19:33.591Z,15.09
2018-04-23T00:22:01.942Z,15.11
2018-04-23T00:24:30.308Z,15.04
2018-04-23T00:26:58.587Z,15.03
2018-04-23T00:29:26.870Z,15.02
2018-04-23T00:31:55.134Z,14.95
2018-04-23T00:34:23.413Z,14.68
2018-04-23T00:36:51.682Z,14.55
2018-04-23T00:39:19.965Z,14.60
2018-04-23T00:41:48.243Z,14.68
2018-04-23T00:44:16.521Z,14.67
2018-04-23T00:46:44.787Z,14.65
2018-04-23T00:49:13.078Z,14.47
2018-04-23T00:51:41.375Z,14.54
2018-04-23T00:54:09.667Z,14.61
2018-04-23T00:56:37.942Z,14.66
2018-04-23T00:59:06.209Z,14.67
2018-04-23T01:01:35.252Z,14.70
2018-04-23T01:04:03.535Z,14.77
2018-04-23T01:06:31.800Z,14.83
2018-04-23T01:09:00.845Z,14.82
2018-04-23T01:11:29.127Z,14.84
2018-04-23T01:13:57.394Z,14.83
2018-04-23T01:16:25.670Z,14.75
2018-04-23T01:18:53.950Z,14.78
2018-04-23T01:21:22.207Z,14.74
2018-04-23T01:23:50.501Z,14.70
2018-04-23T01:26:19.544Z,14.64
2018-04-23T01:28:48.571Z,14.71
2018-04-23T01:31:16.859Z,14.69
2018-04-23T01:33:45.136Z,14.67
2018-04-23T01:36:13.398Z,14.69
2018-04-23T01:38:41.672Z,14.55
2018-04-23T01:41:09.946Z,14.64
2018-04-23T01:43:38.211Z,14.70
2018-04-23T01:46:06.507Z,14.63
2018-04-23T01:48:34.794Z,14.75
2018-04-23T01:51:03.062Z,14.84
2018-04-23T01:53:31.344Z,14.85
2018-04-23T01:55:59.615Z,14.88
2018-04-23T01:58:27.881Z,14.93
2018-04-23T02:00:56.165Z,14.98
2018-04-23T02:03:24.450Z,14.93
2018-04-23T02:05:52.707Z,15.02
2018-04-23T02:08:20.987Z,15.05
2018-04-23T02:10:49.258Z,14.93
2018-04-23T02:13:17.548Z,14.94
2018-04-23T02:15:45.823Z,15.03
2018-04-23T02:18:14.105Z,15.07
2018-04-23T02:20:42.366Z,15.20
2018-04-23T02:23:10.651Z,15.14
2018-04-23T02:25:38.928Z,15.17
2018-04-23T02:28:07.192Z,15.22
2018-04-23T02:30:35.478Z,14.98
2018-04-23T02:33:03.854Z,15.05
2018-04-23T02:35:32.248Z,15.18
2018-04-23T02:38:00.511Z,15.18
2018-04-23T02:40:28.779Z,15.40
2018-04-23T02:42:57.071Z,15.54
2018-04-23T02:45:25.355Z,15.59
2018-04-23T02:47:53.635Z,15.71
2018-04-23T02:50:21.935Z,15.80
2018-04-23T02:52:50.222Z,15.87
2018-04-23T02:55:18.543Z,15.89
2018-04-23T02:57:46.819Z,15.88
2018-04-23T03:00:15.075Z,15.89
2018-04-23T03:02:43.388Z,15.94
2018-04-23T03:05:11.652Z,15.95
2018-04-23T03:07:39.943Z,16.00
2018-04-23T03:10:08.298Z,16.02
2018-04-23T03:12:36.572Z,15.94
2018-04-23T03:15:04.867Z,15.88
2018-04-23T03:17:33.243Z,15.81
2018-04-23T03:20:01.624Z,15.75
2018-04-23T03:22:29.987Z,15.80
2018-04-23T03:24:58.368Z,15.68
2018-04-23T03:27:26.635Z,15.53
2018-04-23T03:29:54.951Z,15.43
2018-04-23T03:32:23.305Z,15.54
2018-04-23T03:34:51.582Z,15.68
2018-04-23T03:37:19.843Z,15.87
2018-04-23T03:39:48.150Z,15.95
2018-04-23T03:42:16.415Z,16.02
2018-04-23T03:44:44.694Z,16.13
2018-04-23T03:47:12.974Z,16.22
2018-04-23T03:49:41.322Z,16.31
2018-04-23T03:52:09.596Z,16.35
2018-04-23T03:54:37.902Z,16.33
2018-04-23T03:57:06.166Z,16.40
2018-04-23T03:59:34.459Z,16.41
2018-04-23T04:02:02.832Z,16.46
2018-04-23T04:04:31.217Z,16.39
2018-04-23T04:06:59.575Z,16.44
2018-04-23T04:09:27.864Z,16.46
2018-04-23T04:11:56.155Z,16.41
2018-04-23T04:21:11.788Z,16.08
2018-04-23T04:23:40.117Z,16.13
2018-04-23T04:26:08.374Z,16.15
2018-04-23T04:28:37.404Z,16.22
2018-04-23T04:31:05.688Z,16.23
2018-04-23T04:33:33.951Z,16.29
2018-04-23T04:36:02.234Z,16.38
2018-04-23T04:38:30.516Z,16.39
2018-04-23T04:40:58.776Z,16.20
2018-04-23T04:43:27.070Z,16.15
2018-04-23T04:45:55.325Z,16.06
2018-04-23T04:48:23.596Z,15.80
2018-04-23T04:50:51.897Z,15.53
2018-04-23T04:53:20.161Z,15.72
2018-04-23T04:55:48.422Z,15.85
2018-04-23T04:58:16.720Z,16.09
2018-04-23T05:00:44.999Z,16.28
2018-04-23T05:03:13.274Z,16.39
2018-04-23T05:05:41.544Z,16.54
2018-04-23T05:08:09.822Z,16.51
2018-04-23T05:10:38.090Z,16.55
2018-04-23T05:13:06.382Z,16.64
2018-04-23T05:15:34.650Z,16.63
2018-04-23T05:18:02.915Z,16.76
2018-04-23T05:20:31.211Z,16.86
2018-04-23T05:22:59.554Z,16.99
2018-04-23T05:25:28.602Z,16.92
2018-04-23T05:27:56.929Z,16.90
2018-04-23T05:30:25.235Z,16.76
2018-04-23T05:32:53.583Z,16.53
2018-04-23T05:35:21.951Z,16.43
2018-04-23T05:37:50.291Z,16.32
2018-04-23T05:40:19.346Z,16.49
2018-04-23T05:42:47.644Z,16.70
2018-04-23T05:45:15.898Z,16.90
2018-04-23T05:47:44.167Z,17.07
2018-04-23T05:50:13.218Z,17.22
2018-04-23T05:52:41.483Z,17.35
2018-04-23T05:55:09.759Z,17.39
2018-04-23T05:57:38.039Z,17.47
2018-04-23T06:00:06.331Z,17.54
2018-04-23T06:02:34.598Z,17.56
2018-04-23T06:05:02.863Z,17.65
2018-04-23T06:07:31.161Z,17.69
2018-04-23T06:09:59.428Z,17.49
2018-04-23T06:12:27.703Z,17.49
2018-04-23T06:14:55.980Z,17.47
2018-04-23T06:17:24.241Z,17.54
2018-04-23T06:19:52.494Z,17.20
2018-04-23T06:22:20.873Z,17.48
2018-04-23T06:24:49.896Z,17.64
2018-04-23T06:27:19.134Z,17.71
2018-04-23T06:29:48.171Z,17.59
2018-04-23T06:32:16.442Z,17.68
2018-04-23T06:34:44.702Z,17.75
2018-04-23T06:37:12.978Z,17.83
2018-04-23T06:39:41.250Z,17.87
2018-04-23T06:42:09.521Z,17.86
2018-04-23T06:44:38.612Z,18.01
2018-04-23T06:47:07.657Z,17.94
2018-04-23T06:49:35.947Z,17.80
2018-04-23T06:52:04.219Z,17.63
2018-04-23T06:54:32.502Z,17.65
2018-04-23T06:57:00.803Z,17.72
2018-04-23T06:59:29.839Z,17.52
2018-04-23T07:01:58.123Z,17.61
2018-04-23T07:04:26.386Z,17.72
2018-04-23T07:06:54.655Z,17.88
2018-04-23T07:09:22.935Z,18.04
2018-04-23T07:11:51.227Z,18.11
2018-04-23T07:14:19.496Z,18.30
2018-04-23T07:16:47.791Z,18.17
2018-04-23T07:19:16.089Z,17.85
2018-04-23T07:21:44.348Z,18.20
2018-04-23T07:24:12.628Z,18.40
2018-04-23T07:26:40.883Z,18.21
2018-04-23T07:29:09.155Z,18.38
2018-04-23T07:31:37.446Z,18.20
2018-04-23T07:34:05.802Z,18.48
2018-04-23T07:36:34.080Z,18.55
2018-04-23T07:39:02.375Z,18.67
2018-04-23T07:41:30.728Z,18.51
2018-04-23T07:43:59.019Z,18.94
2018-04-23T07:46:27.336Z,18.88
2018-04-23T07:48:56.546Z,18.86
2018-04-23T07:51:24.822Z,18.62
2018-04-23T07:53:53.855Z,18.49
2018-04-23T07:56:22.213Z,18.53
2018-04-23T07:58:50.518Z,18.33
2018-04-23T08:01:18.822Z,18.42
2018-04-23T08:03:47.163Z,18.38
2018-04-23T08:06:15.441Z,18.51
2018-04-23T08:08:43.722Z,18.48
2018-04-23T08:11:12.007Z,18.60
2018-04-23T08:13:40.374Z,18.64
2018-04-23T08:16:08.651Z,18.89
2018-04-23T08:18:36.922Z,18.85
2018-04-23T08:21:05.193Z,18.55
2018-04-23T08:23:34.303Z,18.70
2018-04-23T08:26:02.563Z,18.63
2018-04-23T08:28:30.856Z,18.43
2018-04-23T08:30:59.247Z,18.47
2018-04-23T08:33:27.517Z,18.30
2018-04-23T08:35:55.834Z,18.33
2018-04-23T08:38:24.954Z,18.63
2018-04-23T08:40:53.258Z,18.52
2018-04-23T08:43:21.568Z,18.63
2018-04-23T08:45:49.838Z,18.65
2018-04-23T08:48:18.099Z,18.74
2018-04-23T08:50:46.459Z,18.55
2018-04-23T08:53:14.747Z,18.58
2018-04-23T08:55:43.085Z,18.73
2018-04-23T08:58:12.127Z,18.87
2018-04-23T09:00:40.419Z,19.24
2018-04-23T09:03:08.684Z,19.36
2018-04-23T09:05:37.053Z,19.58
2018-04-23T09:08:05.315Z,19.73
2018-04-23T09:10:33.698Z,19.80
2018-04-23T09:13:01.971Z,19.73
2018-04-23T09:15:30.259Z,19.52
2018-04-23T09:17:58.543Z,19.51
2018-04-23T09:20:26.808Z,19.33
2018-04-23T09:22:55.204Z,19.37
2018-04-23T09:25:23.454Z,19.57
2018-04-23T09:27:51.738Z,19.48
2018-04-23T09:30:20.024Z,19.61
2018-04-23T09:32:48.299Z,19.74
2018-04-23T09:35:16.578Z,19.85
2018-04-23T09:37:44.842Z,19.98
2018-04-23T09:40:13.140Z,19.64
2018-04-23T09:42:41.408Z,19.81
2018-04-23T09:45:09.664Z,19.89
2018-04-23T09:47:37.940Z,19.92
2018-04-23T09:50:06.240Z,20.00
2018-04-23T09:52:34.514Z,20.21
2018-04-23T09:55:02.766Z,20.21
2018-04-23T09:57:31.063Z,20.54
2018-04-23T09:59:59.328Z,20.42
2018-04-23T10:02:27.607Z,20.61
2018-04-23T10:04:55.892Z,20.62
2018-04-23T10:07:24.161Z,20.67
2018-04-23T10:09:52.436Z,20.41
2018-04-23T10:12:20.685Z,20.30
2018-04-23T10:14:48.983Z,20.06
2018-04-23T10:17:17.276Z,20.07
2018-04-23T10:19:45.550Z,20.20
2018-04-23T10:22:13.824Z,20.32
2018-04-23T10:24:42.088Z,20.29
2018-04-23T10:27:10.359Z,20.31
2018-04-23T10:29:38.643Z,20.36
2018-04-23T10:32:06.932Z,19.92
2018-04-23T10:34:35.247Z,20.26
2018-04-23T10:37:03.566Z,20.01
2018-04-23T10:39:31.828Z,20.12
2018-04-23T10:42:00.879Z,19.91
2018-04-23T10:44:29.147Z,19.44
2018-04-23T10:46:58.332Z,19.58
2018-04-23T10:49:26.692Z,19.37
2018-04-23T10:51:55.053Z,19.33
2018-04-23T10:54:23.341Z,19.10
2018-04-23T10:56:51.612Z,19.53
2018-04-23T10:59:19.904Z,19.65
2018-04-23T11:01:48.201Z,19.76
2018-04-23T11:04:16.463Z,19.59
2018-04-23T11:06:44.717Z,19.54
2018-04-23T11:09:13.012Z,20.37
2018-04-23T11:11:41.273Z,21.09
2018-04-23T11:14:09.564Z,20.79
2018-04-23T11:16:37.822Z,20.90
2018-04-23T11:19:06.119Z,20.92
2018-04-23T11:21:34.390Z,20.92
2018-04-23T11:24:02.663Z,20.97
2018-04-23T11:26:30.918Z,21.22
2018-04-23T11:28:59.204Z,21.52
2018-04-23T11:31:27.473Z,21.21
2018-04-23T11:33:55.734Z,20.94
2018-04-23T11:36:24.859Z,20.93
2018-04-23T11:38:53.128Z,21.05
2018-04-23T11:41:21.414Z,21.03
2018-04-23T11:43:49.800Z,21.21
2018-04-23T11:46:18.060Z,21.16
2018-04-23T11:48:46.358Z,21.18
2018-04-23T11:51:14.630Z,21.33
2018-04-23T11:53:43.007Z,21.33
2018-04-23T11:56:11.282Z,21.83
2018-04-23T11:58:39.660Z,21.52
2018-04-23T12:01:07.928Z,20.65
2018-04-23T12:03:36.203Z,20.74
2018-04-23T12:06:04.469Z,20.96
2018-04-23T12:08:32.758Z,21.33
2018-04-23T12:11:01.029Z,21.42
2018-04-23T12:13:29.314Z,21.42
2018-04-23T12:15:57.595Z,21.46
2018-04-23T12:18:25.874Z,21.14
2018-04-23T12:20:54.365Z,21.49
2018-04-23T12:23:22.640Z,21.06
2018-04-23T12:25:50.930Z,20.84
2018-04-23T12:28:19.217Z,21.12
2018-04-23T12:30:47.490Z,21.69
2018-04-23T12:33:15.832Z,21.16
2018-04-23T12:35:44.104Z,21.67
2018-04-23T12:38:12.502Z,22.05
2018-04-23T12:40:41.709Z,22.43
2018-04-23T12:43:09.998Z,22.26
2018-04-23T12:45:38.259Z,22.50
2018-04-23T12:48:06.548Z,22.56
2018-04-23T12:50:34.831Z,22.53
2018-04-23T12:53:03.183Z,22.41
2018-04-23T12:55:31.470Z,22.02
2018-04-23T12:57:59.730Z,21.04
2018-04-23T13:00:28.007Z,21.35
2018-04-23T13:02:56.299Z,21.46
2018-04-23T13:05:24.558Z,21.10
2018-04-23T13:07:52.928Z,21.28
2018-04-23T13:10:21.202Z,21.75
2018-04-23T13:12:49.535Z,21.35
2018-04-23T13:15:18.581Z,21.53
2018-04-23T13:17:46.862Z,21.35
2018-04-23T13:20:15.125Z,21.65
2018-04-23T13:22:43.422Z,21.71
2018-04-23T13:25:11.785Z,23.14
2018-04-23T13:27:40.060Z,22.32
2018-04-23T13:30:08.343Z,21.50
2018-04-23T13:32:36.624Z,21.58
2018-04-23T13:35:04.890Z,20.84
2018-04-23T13:37:33.163Z,21.06
2018-04-23T13:40:01.424Z,21.09
2018-04-23T13:42:29.752Z,20.55
2018-04-23T13:44:58.106Z,21.18
2018-04-23T13:47:26.395Z,21.63
2018-04-23T13:49:54.752Z,22.38
2018-04-23T13:52:23.023Z,22.11
2018-04-23T13:54:51.328Z,21.69
2018-04-23T13:57:19.688Z,22.27
2018-04-23T13:59:47.958Z,21.36
2018-04-23T14:02:16.267Z,21.10
2018-04-23T14:04:44.547Z,21.72
2018-04-23T14:07:12.827Z,22.41
2018-04-23T14:09:41.103Z,21.80
2018-04-23T14:12:09.411Z,21.76
2018-04-23T14:14:38.471Z,22.62
2018-04-23T14:17:06.744Z,23.37
2018-04-23T14:19:36.052Z,23.60
2018-04-23T14:22:04.315Z,24.20
2018-04-23T14:24:32.584Z,24.37
2018-04-23T14:27:00.845Z,23.95
2018-04-23T14:29:29.133Z,24.39
2018-04-23T14:31:57.387Z,24.96
2018-04-23T14:34:25.692Z,25.35
2018-04-23T14:36:53.999Z,25.44
2018-04-23T14:39:23.035Z,26.26
2018-04-23T14:41:51.339Z,26.91
2018-04-23T14:44:19.619Z,26.70
2018-04-23T14:46:47.886Z,26.79
2018-04-23T14:49:16.172Z,27.72
2018-04-23T14:51:44.436Z,27.86
2018-04-23T14:54:12.732Z,27.64
2018-04-23T14:56:41.008Z,27.09
2018-04-23T14:59:09.279Z,26.92
2018-04-23T15:01:37.628Z,27.39
2018-04-23T15:04:05.893Z,27.04
2018-04-23T15:06:34.175Z,24.91
2018-04-23T15:09:02.447Z,24.09
2018-04-23T15:11:30.706Z,25.45
2018-04-23T15:13:59.771Z,25.60
2018-04-23T15:16:28.079Z,25.50
2018-04-23T15:18:57.119Z,25.58
2018-04-23T15:21:25.399Z,26.11
2018-04-23T15:23:53.684Z,26.77
2018-04-23T15:26:21.991Z,28.02
2018-04-23T15:28:51.031Z,25.95
2018-04-23T15:31:19.302Z,26.23
2018-04-23T15:33:47.571Z,25.99
2018-04-23T15:36:15.847Z,26.52
2018-04-23T15:38:44.114Z,27.00
2018-04-23T15:41:12.380Z,27.08
2018-04-23T15:43:40.659Z,27.06
2018-04-23T15:46:08.928Z,24.81
2018-04-23T15:48:37.215Z,23.77
2018-04-23T15:51:05.471Z,26.01
2018-04-23T15:53:34.502Z,25.57
2018-04-23T15:56:02.783Z,24.24
2018-04-23T15:58:31.059Z,25.15
2018-04-23T16:00:59.334Z,24.90
2018-04-23T16:03:27.634Z,23.62
2018-04-23T16:05:55.911Z,23.76
2018-04-23T16:08:24.180Z,23.26
2018-04-23T16:10:52.454Z,22.77
2018-04-23T16:13:20.722Z,23.45
2018-04-23T16:15:49.007Z,21.99
2018-04-23T16:18:17.278Z,23.05
2018-04-23T16:20:45.538Z,23.26
2018-04-23T16:23:13.836Z,23.55
2018-04-23T16:25:42.101Z,23.70
2018-04-23T16:28:10.387Z,23.44
2018-04-23T16:30:39.456Z,23.52
2018-04-23T16:33:07.761Z,24.76
2018-04-23T16:35:36.817Z,23.76
2018-04-23T16:38:05.102Z,22.99
2018-04-23T16:40:33.394Z,21.91
2018-04-23T16:43:01.668Z,21.61
2018-04-23T16:45:29.948Z,22.04
2018-04-23T16:47:58.217Z,22.75
2018-04-23T16:50:26.506Z,22.41
2018-04-23T16:52:54.779Z,22.55
2018-04-23T16:55:23.048Z,21.73
2018-04-23T16:57:51.327Z,21.45
2018-04-23T17:00:19.687Z,21.10
2018-04-23T17:02:47.985Z,20.75
2018-04-23T17:05:16.272Z,20.22
2018-04-23T17:07:44.582Z,20.46
2018-04-23T17:10:12.842Z,20.32
2018-04-23T17:12:41.099Z,20.11
2018-04-23T17:15:10.160Z,20.27
2018-04-23T17:17:38.457Z,20.27
2018-04-23T17:20:06.736Z,20.96
2018-04-23T17:22:34.999Z,20.95
2018-04-23T17:25:03.289Z,20.61
2018-04-23T17:27:31.616Z,20.72
2018-04-23T17:30:00.645Z,21.26
2018-04-23T17:32:28.924Z,21.89
2018-04-23T17:34:57.194Z,22.91
2018-04-23T17:37:25.478Z,22.94
2018-04-23T17:39:53.754Z,22.69
2018-04-23T17:42:22.134Z,23.34
2018-04-23T17:44:50.399Z,22.16
2018-04-23T17:47:18.675Z,22.17
2018-04-23T17:49:46.951Z,21.64
2018-04-23T17:52:15.219Z,20.99
2018-04-23T17:54:43.613Z,20.37
2018-04-23T17:57:11.946Z,19.94
2018-04-23T17:59:40.219Z,19.48
2018-04-23T18:02:08.497Z,19.30
2018-04-23T18:04:36.788Z,18.22
2018-04-23T18:07:05.834Z,18.27
2018-04-23T18:09:34.102Z,18.03
2018-04-23T18:12:02.397Z,17.85
2018-04-23T18:14:30.673Z,17.91
2018-04-23T18:16:59.500Z,17.54
2018-04-23T18:19:27.779Z,17.37
2018-04-23T18:21:56.833Z,17.53
2018-04-23T18:24:25.212Z,17.03
2018-04-23T18:26:54.523Z,17.00
2018-04-23T18:29:24.045Z,16.93
2018-04-23T18:31:53.240Z,16.99
2018-04-23T18:34:22.579Z,16.91
2018-04-23T18:36:52.405Z,16.86
2018-04-23T18:39:22.530Z,16.73
2018-04-23T18:41:52.661Z,16.65
2018-04-23T18:44:22.027Z,16.57
2018-04-23T18:46:51.345Z,16.48
2018-04-23T18:49:21.531Z,16.33
2018-04-23T18:51:50.913Z,16.17
2018-04-23T18:54:20.216Z,16.15
2018-04-23T18:56:49.725Z,16.00
2018-04-23T18:59:19.056Z,16.15
2018-04-23T19:01:48.403Z,16.00
2018-04-23T19:04:17.817Z,15.52
2018-04-23T19:06:47.150Z,15.40
2018-04-23T19:09:17.096Z,15.17
2018-04-23T19:11:47.942Z,14.95
2018-04-23T19:14:18.649Z,14.84
2018-04-23T19:16:49.418Z,14.73
2018-04-23T19:19:19.526Z,14.78
2018-04-23T19:21:49.404Z,14.54
2018-04-23T19:24:19.475Z,14.37
2018-04-23T19:26:49.680Z,14.29
2018-04-23T19:29:19.589Z,14.21
2018-04-23T19:31:50.251Z,14.10
2018-04-23T19:34:20.372Z,14.28
2018-04-23T19:36:50.302Z,14.08
2018-04-23T19:39:20.297Z,14.14
2018-04-23T19:41:50.054Z,14.33
2018-04-23T19:44:20.136Z,14.41
2018-04-23T19:46:50.244Z,14.49
2018-04-23T19:49:20.447Z,14.45
2018-04-23T19:51:50.673Z,14.57
2018-04-23T19:54:20.812Z,14.56
2018-04-23T19:56:50.727Z,14.51
2018-04-23T19:59:20.641Z,14.40
2018-04-23T20:01:50.049Z,14.14
2018-04-23T20:04:20.314Z,14.09
2018-04-23T20:06:49.978Z,14.04
2018-04-23T20:09:19.745Z,13.95
2018-04-23T20:11:50.536Z,13.92
2018-04-23T20:14:20.484Z,13.89
2018-04-23T20:16:50.402Z,13.94
2018-04-23T20:19:21.185Z,13.81
2018-04-23T20:21:51.294Z,13.54
2018-04-23T20:24:21.295Z,13.34
2018-04-23T20:26:51.202Z,13.03
2018-04-23T20:29:21.951Z,13.17
2018-04-23T20:31:52.550Z,13.31
2018-04-23T20:34:22.230Z,13.38
2018-04-23T20:36:50.971Z,13.46
2018-04-23T20:39:19.584Z,13.40
2018-04-23T20:41:48.680Z,13.47
2018-04-23T20:44:16.972Z,13.50
2018-04-23T20:46:45.292Z,13.54
2018-04-23T20:49:13.587Z,13.45
2018-04-23T20:51:41.847Z,13.42
2018-04-23T20:54:10.120Z,13.44
2018-04-23T20:56:38.439Z,13.44
2018-04-23T20:59:06.702Z,13.37
2018-04-23T21:01:35.740Z,13.26
2018-04-23T21:04:04.788Z,12.96
2018-04-23T21:06:33.090Z,12.87
2018-04-23T21:09:01.362Z,12.74
2018-04-23T21:11:29.723Z,12.87
2018-04-23T21:13:57.999Z,12.85
2018-04-23T21:16:26.283Z,12.85
2018-04-23T21:18:54.560Z,12.84
2018-04-23T21:21:22.827Z,12.85
2018-04-23T21:23:51.100Z,12.82
2018-04-23T21:26:19.371Z,12.65
2018-04-23T21:28:47.687Z,12.51
2018-04-23T21:31:15.995Z,12.40
2018-04-23T21:33:44.304Z,12.36
2018-04-23T21:36:12.566Z,12.21
2018-04-23T21:38:40.877Z,12.23
2018-04-23T21:41:09.156Z,12.17
2018-04-23T21:43:38.416Z,12.00
2018-04-23T21:46:06.655Z,11.90
2018-04-23T21:48:34.978Z,11.66
2018-04-23T21:51:03.243Z,11.72
2018-04-23T21:53:31.662Z,11.68
2018-04-23T21:55:59.927Z,11.76
2018-04-23T21:58:28.195Z,11.74
2018-04-23T22:00:56.482Z,11.65
2018-04-23T22:03:24.758Z,11.60
2018-04-23T22:05:53.112Z,11.42
2018-04-23T22:08:21.398Z,11.32
2018-04-23T22:10:49.667Z,10.92
2018-04-23T22:13:17.940Z,11.00
2018-04-23T22:15:46.217Z,11.00
2018-04-23T22:18:14.580Z,11.02
2018-04-23T22:20:42.806Z,10.99
2018-04-23T22:23:11.162Z,11.06
2018-04-23T22:25:39.439Z,10.91
2018-04-23T22:28:07.810Z,10.82
2018-04-23T22:30:36.094Z,10.87
2018-04-23T22:33:04.366Z,10.83
2018-04-23T22:35:32.632Z,10.87
2018-04-23T22:38:00.907Z,10.79
2018-04-23T22:40:29.171Z,10.80
2018-04-23T22:42:57.468Z,10.73
2018-04-23T22:45:25.807Z,10.70
2018-04-23T22:47:54.835Z,10.54
2018-04-23T22:50:23.117Z,10.43
2018-04-23T22:52:51.366Z,10.36
2018-04-23T22:55:19.650Z,10.48
2018-04-23T22:57:47.911Z,10.40
2018-04-23T23:00:16.935Z,10.44
2018-04-23T23:02:45.198Z,10.32
2018-04-23T23:05:13.485Z,10.26
2018-04-23T23:07:41.759Z,10.13
2018-04-23T23:10:10.149Z,10.18
2018-04-23T23:12:38.424Z,10.12
2018-04-23T23:15:06.700Z,10.08
2018-04-23T23:17:34.955Z,10.07
2018-04-23T23:20:03.218Z,10.00
2018-04-23T23:22:32.340Z,10.09
2018-04-23T23:25:00.607Z,10.02
2018-04-23T23:27:28.879Z,10.05
2018-04-23T23:29:57.195Z,10.02
2018-04-23T23:32:25.467Z,9.94
2018-04-23T23:34:53.738Z,9.93
2018-04-23T23:37:22.159Z,9.92
2018-04-23T23:39:50.487Z,9.87
2018-04-23T23:42:18.755Z,9.87
2018-04-23T23:44:47.001Z,9.79
2018-04-23T23:47:16.031Z,9.77
2018-04-23T23:49:44.309Z,9.78
2018-04-23T23:52:12.565Z,9.72
2018-04-23T23:54:40.838Z,9.47
2018-04-23T23:57:09.086Z,9.50
2018-04-23T23:59:37.477Z,9.58
